Time;durP1;ratioP1;P1;durP2;ratioP2;P2;SDS_P1;SDS_P2;PMS_P1;PMS_P2;Temp;Humidity;BMP_temperature;BMP_pressure;BME280_temperature;BME280_humidity;BME280_pressure;Samples;Min_cycle;Max_cycle;Signal;HPM_P1;HPM_P2
2022/09/03 00:01:24;;;;;;;4.97;2.53;;;22.10;99.90;;;;;;5069388;28;20028;-59
2022/09/03 00:04:02;;;;;;;3.00;2.30;;;22.00;99.90;;;;;;5069184;28;20041;-59
2022/09/03 00:06:42;;;;;;;6.57;2.45;;;22.00;99.90;;;;;;5088553;28;20049;-60
2022/09/03 00:09:42;;;;;;;4.80;2.35;;;22.00;99.90;;;;;;5091443;28;20860;-59
2022/09/03 00:12:18;;;;;;;3.92;2.28;;;22.00;99.90;;;;;;5092059;28;20032;-59
2022/09/03 00:14:52;;;;;;;5.22;2.50;;;22.00;99.90;;;;;;5094636;28;20377;-59
2022/09/03 00:17:26;;;;;;;;;;;22.00;99.90;;;;;;5096320;28;20488;-60
2022/09/03 00:19:58;;;;;;;;;;;21.90;99.90;;;;;;5096092;28;19907;-60
2022/09/03 00:22:28;;;;;;;5.53;2.30;;;21.90;99.90;;;;;;5095649;28;19957;-60
2022/09/03 00:24:59;;;;;;;4.60;2.40;;;21.90;99.90;;;;;;5094961;28;20028;-59
2022/09/03 00:27:28;;;;;;;6.15;2.60;;;21.90;99.90;;;;;;5095833;28;20439;-60
2022/09/03 00:30:02;;;;;;;4.40;2.45;;;21.80;99.90;;;;;;5095256;28;20050;-59
2022/09/03 00:32:46;;;;;;;4.68;2.20;;;21.80;99.90;;;;;;5095334;28;20047;-59
2022/09/03 00:35:34;;;;;;;5.97;2.55;;;21.70;99.90;;;;;;5095209;28;20028;-59
2022/09/03 00:38:00;;;;;;;4.82;2.22;;;21.70;99.90;;;;;;5095046;28;20384;-59
2022/09/03 00:40:54;;;;;;;3.83;2.33;;;21.70;99.90;;;;;;5110731;28;20028;-59
2022/09/03 00:43:20;;;;;;;5.05;2.33;;;21.70;99.90;;;;;;5115627;28;20438;-60
2022/09/03 00:46:11;;;;;;;5.38;2.70;;;21.70;99.90;;;;;;5115827;28;20083;-59
2022/09/03 00:49:08;;;;;;;4.97;2.28;;;21.70;99.90;;;;;;5115469;28;20027;-59
2022/09/03 00:51:55;;;;;;;5.65;2.33;;;21.70;99.90;;;;;;5107078;28;20040;-59
2022/09/03 00:54:34;;;;;;;5.00;2.38;;;21.70;99.90;;;;;;5115103;28;20385;-59
2022/09/03 00:57:26;;;;;;;4.68;2.67;;;21.70;99.90;;;;;;5114989;28;20020;-59
2022/09/03 01:00:14;;;;;;;3.83;2.40;;;21.10;99.90;;;;;;5110246;28;20043;-59
2022/09/03 01:02:45;;;;;;;5.22;2.45;;;21.10;99.90;;;;;;5115410;28;20027;-59
2022/09/03 01:05:17;;;;;;;4.82;2.40;;;21.20;99.90;;;;;;5115423;28;20031;-59
2022/09/03 01:08:07;;;;;;;4.18;2.50;;;21.30;99.90;;;;;;5114791;28;20031;-59
2022/09/03 01:10:44;;;;;;;4.63;2.60;;;21.60;99.90;;;;;;5114935;28;20032;-59
2022/09/03 01:13:30;;;;;;;5.50;2.70;;;21.60;99.90;;;;;;5115026;27;20035;-58
2022/09/03 01:16:20;;;;;;;6.00;2.72;;;21.70;99.90;;;;;;5113675;28;20023;-58
2022/09/03 01:19:02;;;;;;;5.00;2.35;;;21.50;99.90;;;;;;5115105;28;20115;-58
2022/09/03 01:21:50;;;;;;;6.85;2.60;;;21.40;99.90;;;;;;5244213;22;20211;-60
2022/09/03 01:24:42;;;;;;;8.73;3.03;;;21.50;99.90;;;;;;5034562;28;20551;-61
2022/09/03 01:27:20;;;;;;;5.15;2.58;;;21.60;99.90;;;;;;5033930;28;20412;-60
2022/09/03 01:30:04;;;;;;;4.03;2.58;;;21.60;99.90;;;;;;5034557;28;20036;-61
2022/09/03 01:32:43;;;;;;;4.57;2.20;;;21.60;99.90;;;;;;5033920;28;20037;-60
2022/09/03 01:35:27;;;;;;;4.60;2.72;;;21.60;99.90;;;;;;5033934;28;20049;-60
2022/09/03 01:37:57;;;;;;;6.05;2.50;;;21.50;99.90;;;;;;5049500;28;20033;-60
2022/09/03 01:40:47;;;;;;;4.43;2.83;;;21.50;99.90;;;;;;5048882;28;20389;-60
2022/09/03 01:43:16;;;;;;;5.07;2.60;;;21.50;99.90;;;;;;5053857;28;20057;-61
2022/09/03 01:45:48;;;;;;;4.43;2.45;;;21.50;99.90;;;;;;5054325;28;20024;-60
2022/09/03 01:48:29;;;;;;;5.55;2.88;;;21.50;99.90;;;;;;5053997;28;20025;-60
2022/09/03 01:51:20;;;;;;;4.40;2.67;;;21.50;99.90;;;;;;5053193;28;20064;-61
2022/09/03 01:54:03;;;;;;;4.38;2.42;;;21.50;99.90;;;;;;5053864;28;20035;-61
2022/09/03 01:57:05;;;;;;;4.03;2.73;;;21.40;99.90;;;;;;5053878;28;20409;-61
2022/09/03 01:59:57;;;;;;;4.25;2.58;;;21.40;99.90;;;;;;5053305;28;20432;-61
2022/09/03 02:02:25;;;;;;;5.53;2.70;;;21.40;99.90;;;;;;5053638;28;20029;-61
2022/09/03 02:04:59;;;;;;;5.93;2.50;;;21.30;99.90;;;;;;5053355;28;20025;-61
2022/09/03 02:07:32;;;;;;;4.45;2.40;;;21.30;99.90;;;;;;5053454;28;20040;-61
2022/09/03 02:10:02;;;;;;;5.63;2.25;;;21.40;99.90;;;;;;5053383;28;20021;-61
2022/09/03 02:12:32;;;;;;;4.75;2.40;;;21.40;99.90;;;;;;5053408;28;20049;-61
2022/09/03 02:15:00;;;;;;;5.35;2.25;;;21.30;99.90;;;;;;5053247;28;20425;-60
2022/09/03 02:17:26;;;;;;;4.20;2.35;;;21.30;99.90;;;;;;5053575;28;20061;-61
2022/09/03 02:19:52;;;;;;;5.15;2.40;;;21.30;99.90;;;;;;5052597;28;20052;-60
2022/09/03 02:22:17;;;;;;;4.28;2.30;;;21.30;99.90;;;;;;5053513;28;20045;-61
2022/09/03 02:24:43;;;;;;;3.38;2.13;;;21.30;99.90;;;;;;5053244;28;20029;-61
2022/09/03 02:27:09;;;;;;;4.25;2.38;;;21.30;99.90;;;;;;5053091;28;20021;-61
2022/09/03 02:29:35;;;;;;;4.07;2.50;;;21.20;99.90;;;;;;5052853;28;20031;-61
2022/09/03 02:32:00;;;;;;;4.43;2.42;;;21.10;99.90;;;;;;5053092;28;20039;-61
2022/09/03 02:34:26;;;;;;;4.50;2.40;;;21.10;99.90;;;;;;5052747;28;20029;-60
2022/09/03 02:36:53;;;;;;;4.50;2.30;;;21.10;99.90;;;;;;5052085;28;20577;-60
2022/09/03 02:39:19;;;;;;;4.55;2.35;;;21.10;99.90;;;;;;5052789;28;20033;-60
2022/09/03 02:41:44;;;;;;;3.88;2.40;;;21.20;99.90;;;;;;5052646;28;20025;-60
2022/09/03 02:44:13;;;;;;;4.10;2.33;;;21.20;99.90;;;;;;5052993;28;20021;-60
2022/09/03 02:46:44;;;;;;;4.45;2.42;;;21.20;99.90;;;;;;5052684;28;20104;-61
2022/09/03 02:49:10;;;;;;;3.30;2.40;;;21.10;99.90;;;;;;5052254;28;20021;-61
2022/09/03 02:51:39;;;;;;;4.32;2.58;;;21.10;99.90;;;;;;5052357;28;20037;-61
2022/09/03 02:54:05;;;;;;;3.67;2.33;;;21.20;99.90;;;;;;5052956;28;20394;-61
2022/09/03 02:56:31;;;;;;;6.07;2.97;;;21.20;99.90;;;;;;5052418;28;20504;-61
2022/09/03 02:58:57;;;;;;;4.28;2.53;;;21.10;99.90;;;;;;5052601;28;20066;-61
2022/09/03 03:01:23;;;;;;;3.85;2.55;;;21.10;99.90;;;;;;5052244;28;20020;-61
2022/09/03 03:03:49;;;;;;;4.45;2.63;;;21.10;99.90;;;;;;5052390;28;20028;-61
2022/09/03 03:06:15;;;;;;;5.25;2.47;;;21.10;99.90;;;;;;5052200;28;20631;-61
2022/09/03 03:08:43;;;;;;;5.60;2.67;;;21.10;99.90;;;;;;5052450;28;20021;-61
2022/09/03 03:11:08;;;;;;;4.07;2.70;;;21.10;99.90;;;;;;5052034;28;20716;-61
2022/09/03 03:13:34;;;;;;;4.75;2.60;;;21.10;99.90;;;;;;5052154;28;20025;-61
2022/09/03 03:16:05;;;;;;;4.70;2.50;;;21.10;99.90;;;;;;5052381;28;20025;-61
2022/09/03 03:18:32;;;;;;;3.85;2.60;;;21.00;99.90;;;;;;5050852;28;20495;-61
2022/09/03 03:21:03;;;;;;;6.32;3.42;;;21.00;99.90;;;;;;5052007;28;20063;-61
2022/09/03 03:23:31;;;;;;;6.05;3.15;;;20.70;99.90;;;;;;5051908;28;20028;-61
2022/09/03 03:26:01;;;;;;;5.53;2.72;;;20.10;99.90;;;;;;5052150;28;20527;-61
2022/09/03 03:28:27;;;;;;;7.70;3.70;;;20.10;99.90;;;;;;5050906;28;20419;-61
2022/09/03 03:30:53;;;;;;;5.68;2.97;;;20.00;99.90;;;;;;5052128;28;20037;-61
2022/09/03 03:33:19;;;;;;;7.28;3.53;;;20.10;99.90;;;;;;5051417;28;20051;-61
2022/09/03 03:35:45;;;;;;;5.00;2.70;;;20.20;99.90;;;;;;5051951;28;20025;-61
2022/09/03 03:38:11;;;;;;;4.40;2.80;;;20.30;99.90;;;;;;5051961;28;20079;-61
2022/09/03 03:40:39;;;;;;;4.78;2.83;;;20.00;99.90;;;;;;5051726;28;20120;-61
2022/09/03 03:43:05;;;;;;;4.55;2.60;;;20.50;99.90;;;;;;5051801;28;20032;-61
2022/09/03 03:45:31;;;;;;;3.13;2.47;;;20.70;99.90;;;;;;5052062;28;20021;-61
2022/09/03 03:47:58;;;;;;;4.22;2.97;;;20.70;99.90;;;;;;5050646;28;20026;-61
2022/09/03 03:50:24;;;;;;;4.43;2.80;;;20.60;99.90;;;;;;5051914;28;20508;-61
2022/09/03 03:52:50;;;;;;;5.43;3.10;;;20.70;99.90;;;;;;5051735;28;20516;-61
2022/09/03 03:55:16;;;;;;;3.97;2.80;;;20.80;99.90;;;;;;5051642;28;20025;-60
2022/09/03 03:57:42;;;;;;;5.60;3.35;;;20.80;99.90;;;;;;5051549;28;20044;-61
2022/09/03 04:00:08;;;;;;;5.47;3.13;;;20.50;99.90;;;;;;5051519;28;20024;-61
2022/09/03 04:02:33;;;;;;;4.70;3.03;;;20.60;99.90;;;;;;5051390;28;20374;-60
2022/09/03 04:04:59;;;;;;;5.10;2.80;;;20.50;99.90;;;;;;5051879;28;20032;-60
2022/09/03 04:07:25;;;;;;;5.43;2.80;;;20.60;99.90;;;;;;5051549;28;20473;-59
2022/09/03 04:09:51;;;;;;;6.40;3.17;;;20.60;99.90;;;;;;5051609;28;20029;-59
2022/09/03 04:12:18;;;;;;;4.60;2.80;;;20.70;99.90;;;;;;5050113;28;20060;-60
2022/09/03 04:14:43;;;;;;;4.70;2.70;;;20.70;99.90;;;;;;5051569;28;20036;-60
2022/09/03 04:17:09;;;;;;;5.40;2.95;;;20.70;99.90;;;;;;5051355;28;20581;-60
2022/09/03 04:19:35;;;;;;;3.83;2.95;;;20.40;99.90;;;;;;5050073;28;20476;-59
2022/09/03 04:22:01;;;;;;;4.43;2.90;;;20.50;99.90;;;;;;5051338;28;20048;-60
2022/09/03 04:24:27;;;;;;;5.68;3.63;;;20.40;99.90;;;;;;5051325;28;20043;-59
2022/09/03 04:26:53;;;;;;;5.90;3.90;;;20.50;99.90;;;;;;5051744;28;20017;-59
2022/09/03 04:29:20;;;;;;;3.72;2.90;;;20.30;99.90;;;;;;5051363;28;20033;-60
2022/09/03 04:34:31;;;;;;;5.00;2.85;;;20.50;99.90;;;;;;5051552;28;20058;-59
2022/09/03 04:36:59;;;;;;;6.10;3.70;;;20.60;99.90;;;;;;5051219;28;20537;-60
2022/09/03 04:39:25;;;;;;;6.43;3.33;;;20.00;99.90;;;;;;5051408;28;20021;-59
2022/09/03 04:41:51;;;;;;;4.18;2.83;;;20.20;99.90;;;;;;5051294;28;20090;-60
2022/09/03 04:44:16;;;;;;;4.20;2.97;;;20.30;99.90;;;;;;5050748;28;20020;-59
2022/09/03 04:46:42;;;;;;;5.15;2.90;;;20.30;99.90;;;;;;5051343;28;20040;-60
2022/09/03 04:49:09;;;;;;;7.43;3.75;;;20.60;99.90;;;;;;5051156;28;20452;-60
2022/09/03 04:51:37;;;;;;;5.55;2.95;;;20.40;99.90;;;;;;5051044;28;20040;-60
2022/09/03 04:54:03;;;;;;;5.40;3.03;;;20.40;99.90;;;;;;5051209;28;20017;-60
2022/09/03 04:56:33;;;;;;;5.65;2.85;;;20.40;99.90;;;;;;5051372;28;20024;-61
2022/09/03 04:59:08;;;;;;;5.18;2.92;;;20.60;99.90;;;;;;5050652;28;20096;-61
2022/09/03 05:01:37;;;;;;;3.60;2.90;;;20.50;99.90;;;;;;5053372;28;20493;-61
2022/09/03 05:04:03;;;;;;;3.92;2.85;;;20.40;99.90;;;;;;5054843;28;20020;-61
2022/09/03 05:06:30;;;;;;;5.60;3.40;;;20.30;99.90;;;;;;5054911;28;20556;-61
2022/09/03 05:08:56;;;;;;;5.78;3.60;;;20.00;99.90;;;;;;5054815;28;20029;-61
2022/09/03 05:11:23;;;;;;;7.18;3.13;;;20.00;99.90;;;;;;5054373;28;20481;-61
2022/09/03 05:13:53;;;;;;;6.43;3.40;;;19.50;99.90;;;;;;5054366;28;20485;-61
2022/09/03 05:16:19;;;;;;;3.75;2.70;;;19.90;99.90;;;;;;5054538;28;20108;-61
2022/09/03 05:18:46;;;;;;;4.75;2.97;;;20.10;99.90;;;;;;5054734;28;20025;-61
2022/09/03 05:21:14;;;;;;;5.75;2.90;;;20.10;99.90;;;;;;5054382;28;20049;-60
2022/09/03 05:23:43;;;;;;;4.72;2.88;;;20.20;99.90;;;;;;5054460;28;20028;-61
2022/09/03 05:26:11;;;;;;;9.85;4.40;;;20.20;99.90;;;;;;5054359;28;20028;-61
2022/09/03 05:28:39;;;;;;;4.82;2.92;;;19.50;99.90;;;;;;5053998;28;20045;-62
2022/09/03 05:31:10;;;;;;;4.45;3.33;;;19.60;99.90;;;;;;5040824;28;20033;-60
2022/09/03 05:33:38;;;;;;;5.38;2.95;;;20.10;99.90;;;;;;5034335;28;20029;-61
2022/09/03 05:36:07;;;;;;;5.15;3.03;;;20.30;99.90;;;;;;5033133;28;20026;-62
2022/09/03 05:38:33;;;;;;;6.25;3.00;;;20.30;99.90;;;;;;5033775;28;20056;-60
2022/09/03 05:41:03;;;;;;;4.53;2.90;;;20.40;99.90;;;;;;5053609;28;20032;-60
2022/09/03 05:43:30;;;;;;;6.60;4.00;;;20.20;99.90;;;;;;5053330;28;20028;-60
2022/09/03 05:46:04;;;;;;;6.03;3.65;;;20.40;99.90;;;;;;5053962;28;20543;-59
2022/09/03 05:48:29;;;;;;;;;;;20.40;99.90;;;;;;5054126;28;20051;-60
2022/09/03 05:51:15;;;;;;;9.13;3.22;;;20.40;99.90;;;;;;5053381;28;19913;-60
2022/09/03 05:53:41;;;;;;;5.93;3.05;;;20.40;99.90;;;;;;5053562;28;20052;-59
2022/09/03 05:56:13;;;;;;;9.40;3.33;;;20.10;99.90;;;;;;5053623;28;20029;-59
2022/09/03 05:58:43;;;;;;;5.28;2.90;;;20.40;99.90;;;;;;5053651;28;20048;-59
2022/09/03 06:01:09;;;;;;;4.65;3.15;;;20.40;99.90;;;;;;5053225;28;20055;-59
2022/09/03 06:03:35;;;;;;;6.28;3.28;;;20.50;99.90;;;;;;5053724;28;20107;-59
2022/09/03 06:06:03;;;;;;;3.97;2.65;;;20.50;99.90;;;;;;5053488;28;20029;-59
2022/09/03 06:08:29;;;;;;;6.55;3.08;;;20.50;99.90;;;;;;5053492;28;20393;-59
2022/09/03 06:10:59;;;;;;;4.90;3.72;;;20.60;99.90;;;;;;5053133;28;20025;-59
2022/09/03 06:13:24;;;;;;;5.45;3.13;;;20.50;99.90;;;;;;5053085;28;20052;-59
2022/09/03 06:15:59;;;;;;;5.95;3.08;;;20.10;99.90;;;;;;5053416;28;20031;-60
2022/09/03 06:18:26;;;;;;;8.23;3.20;;;20.40;99.90;;;;;;5053304;28;20390;-60
2022/09/03 06:21:03;;;;;;;6.32;3.30;;;20.30;99.90;;;;;;5053146;28;20037;-61
2022/09/03 06:23:30;;;;;;;5.25;3.45;;;20.30;99.90;;;;;;5053278;28;20421;-60
2022/09/03 06:26:08;;;;;;;7.15;4.50;;;20.50;99.90;;;;;;5053149;28;20029;-61
2022/09/03 06:28:36;;;;;;;7.20;3.20;;;20.10;99.90;;;;;;5052596;28;20624;-61
2022/09/03 06:31:04;;;;;;;8.52;3.30;;;20.30;99.90;;;;;;5052737;28;20021;-62
2022/09/03 06:33:32;;;;;;;6.38;3.35;;;20.50;99.90;;;;;;5053018;28;20033;-61
2022/09/03 06:35:59;;;;;;;7.72;4.10;;;20.60;99.90;;;;;;5053496;28;20041;-61
2022/09/03 06:38:36;;;;;;;8.70;4.35;;;20.20;99.90;;;;;;5052995;28;20025;-61
2022/09/03 06:41:10;;;;;;;6.20;4.60;;;20.50;99.90;;;;;;5052975;28;20024;-62
2022/09/03 06:43:40;;;;;;;;;;;20.20;99.90;;;;;;5053101;28;20025;-61
2022/09/03 06:46:09;;;;;;;9.05;5.05;;;19.90;99.90;;;;;;5053002;28;19905;-61
2022/09/03 06:48:36;;;;;;;6.25;3.83;;;20.00;99.90;;;;;;5052580;28;20032;-59
2022/09/03 06:51:10;;;;;;;5.28;3.30;;;20.10;99.90;;;;;;5052676;28;20113;-61
2022/09/03 06:53:38;;;;;;;7.70;4.00;;;20.60;99.90;;;;;;5052379;28;20100;-60
2022/09/03 06:56:07;;;;;;;6.32;4.15;;;21.10;99.90;;;;;;5051443;28;20029;-59
2022/09/03 06:58:36;;;;;;;7.40;4.57;;;21.40;99.90;;;;;;5035391;28;20025;-61
2022/09/03 07:01:07;;;;;;;10.80;5.22;;;21.20;99.90;;;;;;5019494;28;20044;-60
2022/09/03 07:03:34;;;;;;;10.48;6.07;;;20.60;99.90;;;;;;5032595;28;20017;-60
2022/09/03 07:06:05;;;;;;;7.38;5.35;;;20.50;99.90;;;;;;5032468;28;20555;-60
2022/09/03 07:08:32;;;;;;;7.32;5.13;;;20.50;99.90;;;;;;5032441;28;20084;-61
2022/09/03 07:11:09;;;;;;;10.32;5.35;;;20.30;99.90;;;;;;5032093;28;20037;-61
2022/09/03 07:13:40;;;;;;;8.90;4.85;;;20.20;99.90;;;;;;5032771;28;20029;-61
2022/09/03 07:16:10;;;;;;;9.30;5.93;;;20.00;99.90;;;;;;5032284;28;20029;-60
2022/09/03 07:18:36;;;;;;;5.93;5.32;;;20.00;99.90;;;;;;5032348;28;20464;-59
2022/09/03 07:21:11;;;;;;;9.40;5.07;;;19.90;99.90;;;;;;5027712;28;20046;-60
2022/09/03 07:23:38;;;;;;;8.07;5.60;;;20.00;99.90;;;;;;5031197;28;20036;-60
2022/09/03 07:26:06;;;;;;;11.13;4.90;;;20.10;99.90;;;;;;5031844;28;20450;-60
2022/09/03 07:28:38;;;;;;;28.13;7.20;;;20.30;99.90;;;;;;5032100;28;20032;-61
2022/09/03 07:31:14;;;;;;;211.93;37.35;;;20.70;99.90;;;;;;5031718;28;20135;-61
2022/09/03 07:33:43;;;;;;;230.60;37.72;;;20.80;99.90;;;;;;5031729;28;20501;-60
2022/09/03 07:36:16;;;;;;;331.92;55.47;;;20.80;99.90;;;;;;5024493;28;20049;-61
2022/09/03 07:38:43;;;;;;;238.10;42.72;;;20.90;99.90;;;;;;5021543;28;20458;-60
2022/09/03 07:41:10;;;;;;;113.25;22.60;;;21.10;99.90;;;;;;5036120;28;20104;-61
2022/09/03 07:43:47;;;;;;;138.77;26.83;;;20.80;99.90;;;;;;5026605;28;20508;-61
2022/09/03 07:46:22;;;;;;;189.57;34.17;;;21.40;99.90;;;;;;5029189;28;20113;-61
2022/09/03 07:48:51;;;;;;;175.10;31.33;;;21.80;99.90;;;;;;5026362;28;20021;-60
2022/09/03 07:51:18;;;;;;;43.13;11.05;;;22.00;99.90;;;;;;5030497;28;20088;-60
2022/09/03 07:53:45;;;;;;;107.15;21.17;;;22.60;99.90;;;;;;5023536;28;20383;-60
2022/09/03 07:56:12;;;;;;;48.88;12.50;;;22.30;99.90;;;;;;5012268;28;20026;-60
2022/09/03 07:58:39;;;;;;;53.83;13.73;;;22.50;99.90;;;;;;5026043;28;20044;-60
2022/09/03 08:01:10;;;;;;;39.28;11.13;;;22.10;99.90;;;;;;5026616;28;20128;-60
2022/09/03 08:03:36;;;;;;;51.97;13.35;;;22.60;99.90;;;;;;5023676;28;20033;-61
2022/09/03 08:06:04;;;;;;;48.47;12.55;;;23.00;99.90;;;;;;5017329;28;20025;-60
2022/09/03 08:08:31;;;;;;;34.08;10.30;;;22.90;99.90;;;;;;5011888;28;20053;-58
2022/09/03 08:11:19;;;;;;;24.60;7.85;;;23.10;99.90;;;;;;5012072;28;20037;-60
2022/09/03 08:13:59;;;;;;;29.58;8.38;;;24.20;99.90;;;;;;5019806;28;20048;-61
2022/09/03 08:16:26;;;;;;;11.77;5.65;;;24.10;99.90;;;;;;5023039;28;20494;-61
2022/09/03 08:18:52;;;;;;;13.63;5.75;;;25.30;99.90;;;;;;5022391;28;20112;-60
2022/09/03 08:21:18;;;;;;;12.15;6.00;;;25.00;99.90;;;;;;5020279;28;20050;-60
2022/09/03 08:23:51;;;;;;;11.73;6.13;;;24.60;99.90;;;;;;5017286;28;20057;-58
2022/09/03 08:26:18;;;;;;;11.98;5.47;;;26.00;99.90;;;;;;5028511;28;20044;-58
2022/09/03 08:28:45;;;;;;;17.38;6.53;;;26.20;99.90;;;;;;5029619;28;20079;-59
2022/09/03 08:31:16;;;;;;;11.68;4.60;;;26.60;99.90;;;;;;5026440;28;20049;-60
2022/09/03 08:33:45;;;;;;;20.17;7.05;;;27.20;99.90;;;;;;5030274;28;20021;-59
2022/09/03 08:36:16;;;;;;;16.27;6.25;;;27.20;99.90;;;;;;5031388;28;20036;-60
2022/09/03 08:38:45;;;;;;;10.80;5.28;;;26.40;99.90;;;;;;5035926;28;20018;-59
2022/09/03 08:41:16;;;;;;;14.32;5.47;;;26.60;99.90;;;;;;5038897;28;20480;-60
2022/09/03 08:43:57;;;;;;;18.60;5.18;;;26.00;99.90;;;;;;5034798;28;20104;-59
2022/09/03 08:46:32;;;;;;;13.65;4.72;;;25.70;99.90;;;;;;5033824;28;20032;-60
2022/09/03 08:48:59;;;;;;;12.52;4.65;;;25.40;99.90;;;;;;5034461;28;20044;-59
2022/09/03 08:51:29;;;;;;;32.15;5.38;;;24.70;99.90;;;;;;5032791;28;20035;-61
2022/09/03 08:53:57;;;;;;;20.15;4.80;;;24.40;99.90;;;;;;5034866;28;20029;-63
2022/09/03 08:56:32;;;;;;;19.08;4.60;;;24.20;99.90;;;;;;5029170;28;20076;-64
2022/09/03 08:59:00;;;;;;;18.23;4.63;;;24.80;99.90;;;;;;5032883;28;20044;-61
2022/09/03 09:02:05;;;;;;;65.45;14.10;;;25.80;99.90;;;;;;5034105;28;20045;-64
2022/09/03 09:04:34;;;;;;;20.27;5.45;;;25.90;99.90;;;;;;5033993;28;20026;-64
2022/09/03 09:07:08;;;;;;;84.63;15.98;;;25.70;99.90;;;;;;5033919;28;20025;-66
2022/09/03 09:09:47;;;;;;;101.10;19.05;;;25.60;99.90;;;;;;5032745;28;20029;-66
2022/09/03 09:12:29;;;;;;;101.70;20.15;;;25.00;99.90;;;;;;5033824;28;20048;-66
2022/09/03 09:15:36;;;;;;;143.60;27.02;;;24.60;99.90;;;;;;5033228;28;20033;-65
2022/09/03 09:18:12;;;;;;;37.10;7.75;;;24.40;99.90;;;;;;5030806;28;20037;-66
2022/09/03 09:21:08;;;;;;;73.00;14.07;;;24.70;99.90;;;;;;5022088;28;20049;-66
2022/09/03 09:23:45;;;;;;;110.75;21.77;;;24.10;99.90;;;;;;5031553;28;20018;-66
2022/09/03 09:26:14;;;;;;;52.30;11.90;;;24.10;99.90;;;;;;5022143;28;20495;-66
2022/09/03 09:28:42;;;;;;;29.77;8.57;;;24.30;99.90;;;;;;5014184;28;20441;-66
2022/09/03 09:31:17;;;;;;;19.38;6.28;;;24.30;99.90;;;;;;5016753;28;20083;-66
2022/09/03 09:33:45;;;;;;;29.80;8.27;;;24.40;99.90;;;;;;5022242;28;20037;-66
2022/09/03 09:36:15;;;;;;;20.42;7.05;;;24.20;99.90;;;;;;5013180;28;20034;-66
2022/09/03 09:38:42;;;;;;;22.08;8.05;;;24.20;99.90;;;;;;5018138;28;20029;-66
2022/09/03 09:41:17;;;;;;;13.70;4.18;;;24.20;99.90;;;;;;5021784;28;20517;-65
2022/09/03 09:43:44;;;;;;;12.23;4.70;;;24.80;99.90;;;;;;5013516;28;20057;-66
2022/09/03 09:46:21;;;;;;;8.23;3.50;;;26.10;99.90;;;;;;5012933;28;20025;-65
2022/09/03 09:48:51;;;;;;;6.53;3.25;;;26.90;99.90;;;;;;5026051;28;20030;-64
2022/09/03 09:51:23;;;;;;;8.50;3.70;;;27.30;99.90;;;;;;5033742;28;20112;-63
2022/09/03 09:54:01;;;;;;;7.18;3.70;;;27.00;99.90;;;;;;5032522;28;20049;-65
2022/09/03 09:56:27;;;;;;;5.80;2.92;;;27.10;99.90;;;;;;5033422;28;20501;-65
2022/09/03 09:59:05;;;;;;;23.83;5.80;;;27.60;99.90;;;;;;5030660;28;20025;-63
2022/09/03 10:01:31;;;;;;;21.58;5.45;;;26.40;99.90;;;;;;5033152;28;20112;-65
2022/09/03 10:03:59;;;;;;;15.30;4.78;;;27.00;99.90;;;;;;5032391;28;20148;-65
2022/09/03 10:09:18;;;;;;;11.05;4.03;;;25.50;99.90;;;;;;5024965;28;20048;-65
2022/09/03 10:11:50;;;;;;;10.98;4.00;;;25.40;99.90;;;;;;5033040;28;20057;-65
2022/09/03 10:14:37;;;;;;;8.90;3.35;;;25.30;99.90;;;;;;5032263;28;20056;-65
2022/09/03 10:17:15;;;;;;;13.18;3.88;;;25.60;99.90;;;;;;5033039;28;20032;-65
2022/09/03 10:22:48;;;;;;;54.25;11.15;;;24.60;99.90;;;;;;5033255;28;20048;-63
2022/09/03 10:25:16;;;;;;;48.20;8.82;;;24.50;99.90;;;;;;5031687;28;20402;-64
2022/09/03 10:27:44;;;;;;;29.33;6.93;;;24.50;99.90;;;;;;5032882;28;20390;-64
2022/09/03 10:30:13;;;;;;;14.50;4.90;;;24.30;99.90;;;;;;5030907;28;20541;-65
2022/09/03 10:32:48;;;;;;;15.70;5.15;;;24.60;99.90;;;;;;5032678;28;20498;-65
2022/09/03 10:35:13;;;;;;;46.13;10.57;;;24.40;99.90;;;;;;5029777;28;20394;-65
2022/09/03 10:38:22;;;;;;;101.13;18.25;;;24.50;99.90;;;;;;5032658;28;20044;-64
2022/09/03 10:41:18;;;;;;;62.88;11.80;;;24.80;99.90;;;;;;5047509;28;20397;-65
2022/09/03 10:44:34;;;;;;;37.47;11.43;;;24.80;99.90;;;;;;5052576;28;20396;-64
2022/09/03 10:47:21;;;;;;;20.73;6.28;;;24.80;99.90;;;;;;5049605;28;20053;-64
2022/09/03 10:50:09;;;;;;;16.20;4.78;;;25.10;99.90;;;;;;5046847;28;20393;-65
2022/09/03 10:52:54;;;;;;;14.90;4.20;;;25.20;99.90;;;;;;5027737;28;20425;-64
2022/09/03 10:55:43;;;;;;;7.20;3.53;;;25.10;99.90;;;;;;5024371;28;20072;-66
2022/09/03 10:58:22;;;;;;;11.25;3.90;;;25.30;99.90;;;;;;5030945;28;20029;-67
2022/09/03 11:01:03;;;;;;;9.05;4.00;;;25.20;99.90;;;;;;5032223;28;20033;-65
2022/09/03 11:03:44;;;;;;;9.10;3.47;;;24.60;99.90;;;;;;5031608;28;20032;-65
2022/09/03 11:06:28;;;;;;;9.80;3.75;;;24.60;99.90;;;;;;5031300;28;20051;-64
2022/09/03 11:09:12;;;;;;;13.13;5.00;;;24.70;99.90;;;;;;5031650;28;20033;-65
2022/09/03 11:11:54;;;;;;;13.75;7.43;;;24.80;99.90;;;;;;5029322;28;20049;-66
2022/09/03 11:14:35;;;;;;;12.85;6.20;;;24.60;99.90;;;;;;5026000;28;20025;-67
2022/09/03 11:17:19;;;;;;;11.35;5.22;;;24.70;99.90;;;;;;5031012;28;20040;-66
2022/09/03 11:19:50;;;;;;;7.80;3.45;;;24.90;99.90;;;;;;5029824;28;20490;-67
2022/09/03 11:22:17;;;;;;;14.15;5.30;;;24.90;99.90;;;;;;5028626;28;20251;-66
2022/09/03 11:24:52;;;;;;;11.68;5.03;;;24.70;99.90;;;;;;5024189;28;20414;-66
2022/09/03 11:27:30;;;;;;;9.63;4.20;;;24.50;99.90;;;;;;5030493;28;20037;-66
2022/09/03 11:30:06;;;;;;;10.98;3.70;;;24.80;99.90;;;;;;5028166;28;20110;-65
2022/09/03 11:33:04;;;;;;;10.07;3.55;;;24.80;99.90;;;;;;5025389;28;20037;-66
2022/09/03 11:35:33;;;;;;;7.60;3.70;;;24.60;99.90;;;;;;5016987;28;20064;-67
2022/09/03 11:37:59;;;;;;;10.00;3.67;;;25.30;99.90;;;;;;5028276;28;20039;-66
2022/09/03 11:40:35;;;;;;;24.33;3.70;;;25.70;99.90;;;;;;5036911;28;20520;-63
2022/09/03 11:43:27;;;;;;;8.63;2.97;;;25.70;99.90;;;;;;5020689;28;20030;-67
2022/09/03 11:46:10;;;;;;;9.65;3.10;;;26.60;99.90;;;;;;5019431;28;20448;-69
2022/09/03 11:48:45;;;;;;;11.30;3.30;;;25.90;99.90;;;;;;5026524;28;20065;-67
2022/09/03 11:51:31;;;;;;;6.78;2.97;;;25.80;99.90;;;;;;5023351;28;20037;-68
2022/09/03 11:54:01;;;;;;;8.27;2.72;;;25.70;99.90;;;;;;5011919;28;20022;-67
2022/09/03 11:56:27;;;;;;;8.52;3.03;;;25.50;99.90;;;;;;5011290;28;20029;-67
2022/09/03 11:59:24;;;;;;;7.15;2.70;;;25.80;99.90;;;;;;5010566;28;20109;-67
2022/09/03 12:01:52;;;;;;;7.30;3.00;;;25.90;99.90;;;;;;5011658;28;20402;-68
2022/09/03 12:04:24;;;;;;;7.80;2.90;;;25.60;99.90;;;;;;5011362;28;20045;-68
2022/09/03 12:07:13;;;;;;;5.78;2.40;;;25.70;99.90;;;;;;5011798;28;20033;-68
2022/09/03 12:10:32;;;;;;;5.30;2.70;;;25.70;99.90;;;;;;5012036;28;20482;-67
2022/09/03 12:13:11;;;;;;;7.00;2.83;;;25.60;99.90;;;;;;5013191;28;20045;-68
2022/09/03 12:15:49;;;;;;;6.22;2.78;;;25.40;99.90;;;;;;5012302;28;20490;-68
2022/09/03 12:18:41;;;;;;;5.70;2.55;;;25.20;99.90;;;;;;4996891;28;20641;-68
2022/09/03 12:21:08;;;;;;;8.05;2.40;;;25.10;99.90;;;;;;5008785;28;20069;-67
2022/09/03 12:23:54;;;;;;;7.90;2.60;;;26.30;99.90;;;;;;5013086;28;20041;-68
2022/09/03 12:26:26;;;;;;;6.88;2.75;;;25.60;99.90;;;;;;5012213;28;20498;-67
2022/09/03 12:28:59;;;;;;;7.32;2.67;;;25.60;99.90;;;;;;5012861;28;20022;-68
2022/09/03 12:31:28;;;;;;;;;;;25.80;99.90;;;;;;4996396;28;20100;-68
2022/09/03 12:34:11;;;;;;;8.82;2.33;;;26.30;99.90;;;;;;5013085;28;19912;-68
2022/09/03 12:36:42;;;;;;;7.15;2.58;;;26.20;99.90;;;;;;5012313;28;20502;-68
2022/09/03 12:39:15;;;;;;;8.45;2.75;;;26.20;99.90;;;;;;5021473;28;20032;-68
2022/09/03 12:42:02;;;;;;;5.68;2.30;;;26.00;99.90;;;;;;5052303;28;20025;-67
2022/09/03 12:44:38;;;;;;;6.38;2.50;;;26.00;99.90;;;;;;5051653;28;20041;-68
2022/09/03 12:47:12;;;;;;;8.15;2.47;;;26.30;99.90;;;;;;5014364;28;20077;-68
2022/09/03 12:49:43;;;;;;;6.68;2.58;;;25.90;99.90;;;;;;5015056;28;20038;-68
2022/09/03 12:52:28;;;;;;;5.15;2.20;;;25.90;99.90;;;;;;5014847;28;20026;-68
2022/09/03 12:54:53;;;;;;;5.32;2.70;;;25.80;99.90;;;;;;5014986;28;20026;-68
2022/09/03 12:57:25;;;;;;;7.85;2.20;;;25.80;99.90;;;;;;5014876;28;20406;-67
2022/09/03 12:59:56;;;;;;;7.90;2.70;;;25.90;99.90;;;;;;5014855;28;20033;-69
2022/09/03 13:02:28;;;;;;;6.00;2.40;;;25.90;99.90;;;;;;5019693;28;20470;-68
2022/09/03 13:04:54;;;;;;;11.57;3.10;;;26.10;99.90;;;;;;5017511;28;20021;-67
2022/09/03 13:07:32;;;;;;;5.53;2.53;;;26.70;99.90;;;;;;5019882;28;20109;-68
2022/09/03 13:10:06;;;;;;;8.60;2.60;;;26.30;99.90;;;;;;5014611;28;20025;-68
2022/09/03 13:12:46;;;;;;;6.30;2.60;;;26.00;99.90;;;;;;5020239;28;20501;-68
2022/09/03 13:15:20;;;;;;;8.07;2.50;;;26.10;99.90;;;;;;5034178;28;20061;-67
2022/09/03 13:18:15;;;;;;;;;;;26.00;99.90;;;;;;5035312;28;20037;-67
2022/09/03 13:21:03;;;;;;;9.18;2.75;;;26.00;99.90;;;;;;5031461;28;19933;-68
2022/09/03 13:23:42;;;;;;;7.05;2.58;;;25.90;99.90;;;;;;5024212;28;20033;-67